sensor_id;sensor_type;location;lat;lon;timestamp;temperature;humidity
18753;DHT22;9505;50.882;5.350;2023-09-19T00:01:06;15.40;99.90
18753;DHT22;9505;50.882;5.350;2023-09-19T00:03:37;15.40;99.90
18753;DHT22;9505;50.882;5.350;2023-09-19T00:06:04;15.40;99.90
18753;DHT22;9505;50.882;5.350;2023-09-19T00:08:31;15.30;99.90
18753;DHT22;9505;50.882;5.350;2023-09-19T00:10:56;15.40;99.90
18753;DHT22;9505;50.882;5.350;2023-09-19T00:13:29;15.30;99.90
18753;DHT22;9505;50.882;5.350;2023-09-19T00:15:56;15.20;99.90
18753;DHT22;9505;50.882;5.350;2023-09-19T00:18:24;15.20;99.90
18753;DHT22;9505;50.882;5.350;2023-09-19T00:20:57;15.20;99.90
18753;DHT22;9505;50.882;5.350;2023-09-19T00:23:23;15.20;99.90
18753;DHT22;9505;50.882;5.350;2023-09-19T00:25:50;15.30;99.90
18753;DHT22;9505;50.882;5.350;2023-09-19T00:28:17;15.30;99.90
18753;DHT22;9505;50.882;5.350;2023-09-19T00:30:44;15.40;99.90
18753;DHT22;9505;50.882;5.350;2023-09-19T00:33:10;15.40;99.90
18753;DHT22;9505;50.882;5.350;2023-09-19T00:35:37;15.40;99.90
18753;DHT22;9505;50.882;5.350;2023-09-19T00:38:03;15.40;99.90
18753;DHT22;9505;50.882;5.350;2023-09-19T00:40:29;15.40;99.90
18753;DHT22;9505;50.882;5.350;2023-09-19T00:42:58;15.30;99.90
18753;DHT22;9505;50.882;5.350;2023-09-19T00:45:26;15.20;99.90
18753;DHT22;9505;50.882;5.350;2023-09-19T00:47:53;15.20;99.90
18753;DHT22;9505;50.882;5.350;2023-09-19T00:50:22;15.20;99.90
18753;DHT22;9505;50.882;5.350;2023-09-19T00:52:53;15.20;99.90
18753;DHT22;9505;50.882;5.350;2023-09-19T00:55:19;15.30;99.90
18753;DHT22;9505;50.882;5.350;2023-09-19T00:57:48;15.30;99.90
18753;DHT22;9505;50.882;5.350;2023-09-19T01:00:15;15.40;99.90
18753;DHT22;9505;50.882;5.350;2023-09-19T01:02:42;15.40;99.90
18753;DHT22;9505;50.882;5.350;2023-09-19T01:05:09;15.40;99.90
18753;DHT22;9505;50.882;5.350;2023-09-19T01:07:36;15.30;99.90
18753;DHT22;9505;50.882;5.350;2023-09-19T01:10:04;15.30;99.90
18753;DHT22;9505;50.882;5.350;2023-09-19T01:29:10;15.20;99.90
18753;DHT22;9505;50.882;5.350;2023-09-19T01:31:39;15.20;99.90
18753;DHT22;9505;50.882;5.350;2023-09-19T01:34:05;15.20;99.90
18753;DHT22;9505;50.882;5.350;2023-09-19T01:36:35;15.20;99.90
18753;DHT22;9505;50.882;5.350;2023-09-19T01:39:11;15.30;99.90
18753;DHT22;9505;50.882;5.350;2023-09-19T01:41:51;15.30;99.90
18753;DHT22;9505;50.882;5.350;2023-09-19T01:47:13;15.20;99.90
18753;DHT22;9505;50.882;5.350;2023-09-19T01:49:56;15.10;99.90
18753;DHT22;9505;50.882;5.350;2023-09-19T01:52:29;15.10;99.90
18753;DHT22;9505;50.882;5.350;2023-09-19T01:55:02;15.10;99.90
18753;DHT22;9505;50.882;5.350;2023-09-19T01:57:41;15.10;99.90
18753;DHT22;9505;50.882;5.350;2023-09-19T02:00:10;15.10;99.90
18753;DHT22;9505;50.882;5.350;2023-09-19T02:02:43;15.00;99.90
18753;DHT22;9505;50.882;5.350;2023-09-19T02:05:10;15.00;99.90
18753;DHT22;9505;50.882;5.350;2023-09-19T02:07:38;14.90;99.90
18753;DHT22;9505;50.882;5.350;2023-09-19T02:10:05;14.80;99.90
18753;DHT22;9505;50.882;5.350;2023-09-19T02:12:31;14.90;99.90
18753;DHT22;9505;50.882;5.350;2023-09-19T02:14:58;14.90;99.90
18753;DHT22;9505;50.882;5.350;2023-09-19T02:17:25;14.90;99.90
18753;DHT22;9505;50.882;5.350;2023-09-19T02:19:55;14.80;99.90
18753;DHT22;9505;50.882;5.350;2023-09-19T02:22:21;14.80;99.90
18753;DHT22;9505;50.882;5.350;2023-09-19T02:24:48;14.80;99.90
18753;DHT22;9505;50.882;5.350;2023-09-19T02:27:14;14.80;99.90
18753;DHT22;9505;50.882;5.350;2023-09-19T02:29:42;14.90;99.90
18753;DHT22;9505;50.882;5.350;2023-09-19T02:32:07;14.90;99.90
18753;DHT22;9505;50.882;5.350;2023-09-19T02:34:35;14.80;99.90
18753;DHT22;9505;50.882;5.350;2023-09-19T02:37:03;14.80;99.90
18753;DHT22;9505;50.882;5.350;2023-09-19T02:39:33;14.70;99.90
18753;DHT22;9505;50.882;5.350;2023-09-19T02:41:59;14.70;99.90
18753;DHT22;9505;50.882;5.350;2023-09-19T02:44:25;14.60;99.90
18753;DHT22;9505;50.882;5.350;2023-09-19T02:46:51;14.60;99.90
18753;DHT22;9505;50.882;5.350;2023-09-19T02:49:17;14.60;99.90
18753;DHT22;9505;50.882;5.350;2023-09-19T02:51:43;14.60;99.90
18753;DHT22;9505;50.882;5.350;2023-09-19T02:54:10;14.60;99.90
18753;DHT22;9505;50.882;5.350;2023-09-19T02:56:37;14.60;99.90
18753;DHT22;9505;50.882;5.350;2023-09-19T02:59:03;14.60;99.90
18753;DHT22;9505;50.882;5.350;2023-09-19T03:01:29;14.50;99.90
18753;DHT22;9505;50.882;5.350;2023-09-19T03:03:55;14.50;99.90
18753;DHT22;9505;50.882;5.350;2023-09-19T03:06:21;14.50;99.90
18753;DHT22;9505;50.882;5.350;2023-09-19T03:08:47;14.60;99.90
18753;DHT22;9505;50.882;5.350;2023-09-19T03:11:15;14.40;99.90
18753;DHT22;9505;50.882;5.350;2023-09-19T03:13:44;14.40;99.90
18753;DHT22;9505;50.882;5.350;2023-09-19T03:16:10;14.30;99.90
18753;DHT22;9505;50.882;5.350;2023-09-19T03:18:36;14.40;99.90
18753;DHT22;9505;50.882;5.350;2023-09-19T03:21:01;14.30;99.90
18753;DHT22;9505;50.882;5.350;2023-09-19T03:23:28;14.40;99.90
18753;DHT22;9505;50.882;5.350;2023-09-19T03:25:57;14.30;99.90
18753;DHT22;9505;50.882;5.350;2023-09-19T03:28:24;14.40;99.90
18753;DHT22;9505;50.882;5.350;2023-09-19T03:31:03;14.40;99.90
18753;DHT22;9505;50.882;5.350;2023-09-19T03:33:29;14.40;99.90
18753;DHT22;9505;50.882;5.350;2023-09-19T03:35:57;14.30;99.90
18753;DHT22;9505;50.882;5.350;2023-09-19T03:38:25;14.30;99.90
18753;DHT22;9505;50.882;5.350;2023-09-19T03:40:51;14.30;99.90
18753;DHT22;9505;50.882;5.350;2023-09-19T03:43:16;14.30;99.90
18753;DHT22;9505;50.882;5.350;2023-09-19T03:45:42;14.30;99.90
18753;DHT22;9505;50.882;5.350;2023-09-19T03:48:10;14.30;99.90
18753;DHT22;9505;50.882;5.350;2023-09-19T03:50:36;14.30;99.90
18753;DHT22;9505;50.882;5.350;2023-09-19T03:53:02;14.30;99.90
18753;DHT22;9505;50.882;5.350;2023-09-19T03:55:29;14.40;99.90
18753;DHT22;9505;50.882;5.350;2023-09-19T03:57:57;14.50;99.90
18753;DHT22;9505;50.882;5.350;2023-09-19T04:00:23;14.60;99.90
18753;DHT22;9505;50.882;5.350;2023-09-19T04:02:52;14.60;99.90
18753;DHT22;9505;50.882;5.350;2023-09-19T04:05:18;14.70;99.90
18753;DHT22;9505;50.882;5.350;2023-09-19T04:07:43;14.70;99.90
18753;DHT22;9505;50.882;5.350;2023-09-19T04:10:10;14.80;99.90
18753;DHT22;9505;50.882;5.350;2023-09-19T04:12:37;14.80;99.90
18753;DHT22;9505;50.882;5.350;2023-09-19T04:15:05;14.80;99.90
18753;DHT22;9505;50.882;5.350;2023-09-19T04:17:31;14.90;99.90
18753;DHT22;9505;50.882;5.350;2023-09-19T04:19:59;14.90;99.90
18753;DHT22;9505;50.882;5.350;2023-09-19T04:22:24;14.90;99.90
18753;DHT22;9505;50.882;5.350;2023-09-19T04:24:50;14.90;99.90
18753;DHT22;9505;50.882;5.350;2023-09-19T04:27:16;14.90;99.90
18753;DHT22;9505;50.882;5.350;2023-09-19T04:29:41;14.80;99.90
18753;DHT22;9505;50.882;5.350;2023-09-19T04:32:08;14.70;99.90
18753;DHT22;9505;50.882;5.350;2023-09-19T04:34:35;14.80;99.90
18753;DHT22;9505;50.882;5.350;2023-09-19T04:37:01;14.80;99.90
18753;DHT22;9505;50.882;5.350;2023-09-19T04:39:27;14.80;99.90
18753;DHT22;9505;50.882;5.350;2023-09-19T04:41:54;14.80;99.90
18753;DHT22;9505;50.882;5.350;2023-09-19T04:44:20;14.80;99.90
18753;DHT22;9505;50.882;5.350;2023-09-19T04:46:46;14.80;99.90
18753;DHT22;9505;50.882;5.350;2023-09-19T04:49:13;14.80;99.90
18753;DHT22;9505;50.882;5.350;2023-09-19T04:51:39;14.70;99.90
18753;DHT22;9505;50.882;5.350;2023-09-19T04:54:06;14.70;99.90
18753;DHT22;9505;50.882;5.350;2023-09-19T04:56:32;14.60;99.90
18753;DHT22;9505;50.882;5.350;2023-09-19T04:58:58;14.50;99.90
18753;DHT22;9505;50.882;5.350;2023-09-19T05:01:24;14.50;99.90
18753;DHT22;9505;50.882;5.350;2023-09-19T05:03:50;14.30;99.90
18753;DHT22;9505;50.882;5.350;2023-09-19T05:06:18;14.30;99.90
18753;DHT22;9505;50.882;5.350;2023-09-19T05:08:46;14.20;99.90
18753;DHT22;9505;50.882;5.350;2023-09-19T05:11:19;14.30;99.90
18753;DHT22;9505;50.882;5.350;2023-09-19T05:13:48;14.20;99.90
18753;DHT22;9505;50.882;5.350;2023-09-19T05:16:18;14.20;99.90
18753;DHT22;9505;50.882;5.350;2023-09-19T05:18:43;14.10;99.90
18753;DHT22;9505;50.882;5.350;2023-09-19T05:21:09;14.20;99.90
18753;DHT22;9505;50.882;5.350;2023-09-19T05:23:35;14.20;99.90
18753;DHT22;9505;50.882;5.350;2023-09-19T05:26:00;14.10;99.90
18753;DHT22;9505;50.882;5.350;2023-09-19T05:28:27;14.00;99.90
18753;DHT22;9505;50.882;5.350;2023-09-19T05:30:55;14.00;99.90
18753;DHT22;9505;50.882;5.350;2023-09-19T05:33:21;14.10;99.90
18753;DHT22;9505;50.882;5.350;2023-09-19T05:35:49;14.10;99.90
18753;DHT22;9505;50.882;5.350;2023-09-19T05:38:15;14.10;99.90
18753;DHT22;9505;50.882;5.350;2023-09-19T05:40:44;14.10;99.90
18753;DHT22;9505;50.882;5.350;2023-09-19T05:43:10;14.10;99.90
18753;DHT22;9505;50.882;5.350;2023-09-19T05:45:36;14.20;99.90
18753;DHT22;9505;50.882;5.350;2023-09-19T05:48:13;14.20;99.90
18753;DHT22;9505;50.882;5.350;2023-09-19T05:50:39;14.20;99.90
18753;DHT22;9505;50.882;5.350;2023-09-19T05:53:05;14.40;99.90
18753;DHT22;9505;50.882;5.350;2023-09-19T05:55:32;14.40;99.90
18753;DHT22;9505;50.882;5.350;2023-09-19T05:57:58;14.50;99.90
18753;DHT22;9505;50.882;5.350;2023-09-19T06:00:24;14.50;99.90
18753;DHT22;9505;50.882;5.350;2023-09-19T06:02:57;14.50;99.90
18753;DHT22;9505;50.882;5.350;2023-09-19T06:05:24;14.50;99.90
18753;DHT22;9505;50.882;5.350;2023-09-19T06:07:50;14.50;99.90
18753;DHT22;9505;50.882;5.350;2023-09-19T06:10:17;14.60;99.90
18753;DHT22;9505;50.882;5.350;2023-09-19T06:12:43;14.70;99.90
18753;DHT22;9505;50.882;5.350;2023-09-19T06:15:10;14.70;99.90
18753;DHT22;9505;50.882;5.350;2023-09-19T06:18:02;14.70;99.90
18753;DHT22;9505;50.882;5.350;2023-09-19T06:20:28;14.80;99.90
18753;DHT22;9505;50.882;5.350;2023-09-19T06:22:54;14.90;99.90
18753;DHT22;9505;50.882;5.350;2023-09-19T06:25:20;14.90;99.90
18753;DHT22;9505;50.882;5.350;2023-09-19T06:27:47;14.90;99.90
18753;DHT22;9505;50.882;5.350;2023-09-19T06:30:13;15.00;99.90
18753;DHT22;9505;50.882;5.350;2023-09-19T06:32:40;15.10;99.90
18753;DHT22;9505;50.882;5.350;2023-09-19T06:35:10;15.10;99.90
18753;DHT22;9505;50.882;5.350;2023-09-19T06:37:37;15.30;99.90
18753;DHT22;9505;50.882;5.350;2023-09-19T06:40:09;15.40;99.90
18753;DHT22;9505;50.882;5.350;2023-09-19T06:42:43;15.50;99.90
18753;DHT22;9505;50.882;5.350;2023-09-19T06:45:13;15.40;99.90
18753;DHT22;9505;50.882;5.350;2023-09-19T06:47:43;15.40;99.90
18753;DHT22;9505;50.882;5.350;2023-09-19T06:50:09;15.50;99.90
18753;DHT22;9505;50.882;5.350;2023-09-19T06:52:42;15.60;99.90
18753;DHT22;9505;50.882;5.350;2023-09-19T06:55:08;15.70;99.90
18753;DHT22;9505;50.882;5.350;2023-09-19T06:57:39;15.60;99.90
18753;DHT22;9505;50.882;5.350;2023-09-19T07:00:06;15.70;99.90
18753;DHT22;9505;50.882;5.350;2023-09-19T07:02:44;15.70;99.90
18753;DHT22;9505;50.882;5.350;2023-09-19T07:05:10;15.90;99.90
18753;DHT22;9505;50.882;5.350;2023-09-19T07:07:36;16.00;99.90
18753;DHT22;9505;50.882;5.350;2023-09-19T07:10:03;16.20;99.90
18753;DHT22;9505;50.882;5.350;2023-09-19T07:12:31;16.40;99.90
18753;DHT22;9505;50.882;5.350;2023-09-19T07:14:58;16.20;99.90
18753;DHT22;9505;50.882;5.350;2023-09-19T07:17:24;16.20;99.90
18753;DHT22;9505;50.882;5.350;2023-09-19T07:19:49;16.30;99.90
18753;DHT22;9505;50.882;5.350;2023-09-19T07:22:16;16.50;99.90
18753;DHT22;9505;50.882;5.350;2023-09-19T07:24:41;16.40;99.90
18753;DHT22;9505;50.882;5.350;2023-09-19T07:27:08;16.50;99.90
18753;DHT22;9505;50.882;5.350;2023-09-19T07:29:34;16.70;99.90
18753;DHT22;9505;50.882;5.350;2023-09-19T07:32:00;17.00;99.90
18753;DHT22;9505;50.882;5.350;2023-09-19T07:34:25;16.80;99.90
18753;DHT22;9505;50.882;5.350;2023-09-19T07:36:51;17.10;99.90
18753;DHT22;9505;50.882;5.350;2023-09-19T07:39:17;17.20;99.90
18753;DHT22;9505;50.882;5.350;2023-09-19T07:41:42;17.40;99.90
18753;DHT22;9505;50.882;5.350;2023-09-19T07:44:08;17.40;99.90
18753;DHT22;9505;50.882;5.350;2023-09-19T07:46:35;17.60;99.90
18753;DHT22;9505;50.882;5.350;2023-09-19T07:49:01;17.30;99.90
18753;DHT22;9505;50.882;5.350;2023-09-19T07:51:27;17.40;99.90
18753;DHT22;9505;50.882;5.350;2023-09-19T07:53:53;17.50;99.90
18753;DHT22;9505;50.882;5.350;2023-09-19T07:56:19;17.30;99.90
18753;DHT22;9505;50.882;5.350;2023-09-19T07:58:45;18.00;99.90
18753;DHT22;9505;50.882;5.350;2023-09-19T08:01:11;18.00;99.90
18753;DHT22;9505;50.882;5.350;2023-09-19T08:03:39;18.40;99.90
18753;DHT22;9505;50.882;5.350;2023-09-19T08:06:09;18.60;99.90
18753;DHT22;9505;50.882;5.350;2023-09-19T08:08:35;19.10;99.90
18753;DHT22;9505;50.882;5.350;2023-09-19T08:11:04;18.60;99.90
18753;DHT22;9505;50.882;5.350;2023-09-19T08:13:41;18.60;99.90
18753;DHT22;9505;50.882;5.350;2023-09-19T08:16:12;19.10;99.90
18753;DHT22;9505;50.882;5.350;2023-09-19T08:18:38;19.10;99.90
18753;DHT22;9505;50.882;5.350;2023-09-19T08:21:06;18.60;99.90
18753;DHT22;9505;50.882;5.350;2023-09-19T08:23:37;18.10;99.90
18753;DHT22;9505;50.882;5.350;2023-09-19T08:26:04;18.40;99.90
18753;DHT22;9505;50.882;5.350;2023-09-19T08:28:33;18.70;99.90
18753;DHT22;9505;50.882;5.350;2023-09-19T08:31:03;18.90;99.90
18753;DHT22;9505;50.882;5.350;2023-09-19T08:33:34;19.00;99.90
18753;DHT22;9505;50.882;5.350;2023-09-19T08:36:01;18.80;99.90
18753;DHT22;9505;50.882;5.350;2023-09-19T08:38:33;18.40;99.90
18753;DHT22;9505;50.882;5.350;2023-09-19T08:40:59;18.30;99.90
18753;DHT22;9505;50.882;5.350;2023-09-19T08:43:26;18.50;99.90
18753;DHT22;9505;50.882;5.350;2023-09-19T08:46:11;18.90;99.90
18753;DHT22;9505;50.882;5.350;2023-09-19T08:49:04;19.10;99.90
18753;DHT22;9505;50.882;5.350;2023-09-19T08:51:42;19.00;99.90
18753;DHT22;9505;50.882;5.350;2023-09-19T08:54:25;19.30;99.90
18753;DHT22;9505;50.882;5.350;2023-09-19T08:56:56;19.20;99.90
18753;DHT22;9505;50.882;5.350;2023-09-19T08:59:25;18.80;99.90
18753;DHT22;9505;50.882;5.350;2023-09-19T09:01:56;18.60;99.90
18753;DHT22;9505;50.882;5.350;2023-09-19T09:04:22;18.90;99.90
18753;DHT22;9505;50.882;5.350;2023-09-19T09:06:49;19.10;99.90
18753;DHT22;9505;50.882;5.350;2023-09-19T09:09:17;19.60;99.90
18753;DHT22;9505;50.882;5.350;2023-09-19T09:11:42;19.80;99.90
18753;DHT22;9505;50.882;5.350;2023-09-19T09:14:08;19.90;99.90
18753;DHT22;9505;50.882;5.350;2023-09-19T09:16:34;19.90;99.90
18753;DHT22;9505;50.882;5.350;2023-09-19T09:19:00;19.80;99.90
18753;DHT22;9505;50.882;5.350;2023-09-19T09:21:27;19.80;99.90
18753;DHT22;9505;50.882;5.350;2023-09-19T09:23:54;19.60;99.90
18753;DHT22;9505;50.882;5.350;2023-09-19T09:29:04;19.30;99.90
18753;DHT22;9505;50.882;5.350;2023-09-19T09:31:30;18.90;99.90
18753;DHT22;9505;50.882;5.350;2023-09-19T09:33:57;19.00;99.90
18753;DHT22;9505;50.882;5.350;2023-09-19T09:36:37;19.60;99.90
18753;DHT22;9505;50.882;5.350;2023-09-19T09:39:03;20.00;99.90
18753;DHT22;9505;50.882;5.350;2023-09-19T09:41:50;20.50;99.90
18753;DHT22;9505;50.882;5.350;2023-09-19T09:44:19;20.80;99.90
18753;DHT22;9505;50.882;5.350;2023-09-19T09:46:46;20.90;99.90
18753;DHT22;9505;50.882;5.350;2023-09-19T09:49:24;20.60;99.90
18753;DHT22;9505;50.882;5.350;2023-09-19T09:52:06;20.70;99.90
18753;DHT22;9505;50.882;5.350;2023-09-19T09:54:59;20.80;99.90
18753;DHT22;9505;50.882;5.350;2023-09-19T09:57:31;20.60;99.90
18753;DHT22;9505;50.882;5.350;2023-09-19T09:59:58;20.00;99.90
18753;DHT22;9505;50.882;5.350;2023-09-19T10:02:29;19.70;99.90
18753;DHT22;9505;50.882;5.350;2023-09-19T10:04:59;19.90;99.90
18753;DHT22;9505;50.882;5.350;2023-09-19T10:07:32;19.40;99.90
18753;DHT22;9505;50.882;5.350;2023-09-19T10:10:02;19.30;99.90
18753;DHT22;9505;50.882;5.350;2023-09-19T10:12:47;18.90;99.90
18753;DHT22;9505;50.882;5.350;2023-09-19T10:15:16;19.10;99.90
18753;DHT22;9505;50.882;5.350;2023-09-19T10:17:44;19.40;99.90
18753;DHT22;9505;50.882;5.350;2023-09-19T10:20:17;19.10;99.90
18753;DHT22;9505;50.882;5.350;2023-09-19T10:22:53;19.20;99.90
18753;DHT22;9505;50.882;5.350;2023-09-19T10:25:25;19.50;99.90
18753;DHT22;9505;50.882;5.350;2023-09-19T10:27:53;19.70;99.90
18753;DHT22;9505;50.882;5.350;2023-09-19T10:30:22;19.50;99.90
18753;DHT22;9505;50.882;5.350;2023-09-19T10:33:00;19.10;99.90
18753;DHT22;9505;50.882;5.350;2023-09-19T10:35:26;19.10;99.90
18753;DHT22;9505;50.882;5.350;2023-09-19T10:37:54;19.60;99.90
18753;DHT22;9505;50.882;5.350;2023-09-19T10:40:21;19.90;99.90
18753;DHT22;9505;50.882;5.350;2023-09-19T10:42:52;19.40;99.90
18753;DHT22;9505;50.882;5.350;2023-09-19T10:45:20;19.30;99.90
18753;DHT22;9505;50.882;5.350;2023-09-19T10:47:47;19.10;99.90
18753;DHT22;9505;50.882;5.350;2023-09-19T10:50:20;19.50;99.90
18753;DHT22;9505;50.882;5.350;2023-09-19T10:52:50;20.00;99.90
18753;DHT22;9505;50.882;5.350;2023-09-19T10:55:25;20.70;99.90
18753;DHT22;9505;50.882;5.350;2023-09-19T10:57:53;20.80;99.90
18753;DHT22;9505;50.882;5.350;2023-09-19T11:00:19;20.80;99.90
18753;DHT22;9505;50.882;5.350;2023-09-19T11:05:40;20.70;99.90
18753;DHT22;9505;50.882;5.350;2023-09-19T11:08:09;20.70;99.90
18753;DHT22;9505;50.882;5.350;2023-09-19T11:10:50;20.40;99.90
18753;DHT22;9505;50.882;5.350;2023-09-19T11:13:30;20.40;99.90
18753;DHT22;9505;50.882;5.350;2023-09-19T11:16:03;20.40;99.90
18753;DHT22;9505;50.882;5.350;2023-09-19T11:27:12;21.40;99.90
18753;DHT22;9505;50.882;5.350;2023-09-19T11:29:39;21.30;99.90
18753;DHT22;9505;50.882;5.350;2023-09-19T11:32:06;21.40;99.90
18753;DHT22;9505;50.882;5.350;2023-09-19T11:34:42;21.10;99.90
18753;DHT22;9505;50.882;5.350;2023-09-19T11:39:40;20.70;99.90
18753;DHT22;9505;50.882;5.350;2023-09-19T11:48:15;20.20;99.90
18753;DHT22;9505;50.882;5.350;2023-09-19T11:50:45;20.60;99.90
18753;DHT22;9505;50.882;5.350;2023-09-19T11:53:13;20.70;99.90
18753;DHT22;9505;50.882;5.350;2023-09-19T11:55:41;21.00;99.90
18753;DHT22;9505;50.882;5.350;2023-09-19T11:58:11;21.00;99.90
18753;DHT22;9505;50.882;5.350;2023-09-19T12:00:39;20.70;99.90
18753;DHT22;9505;50.882;5.350;2023-09-19T12:03:10;21.40;99.90
18753;DHT22;9505;50.882;5.350;2023-09-19T12:05:37;21.90;99.90
18753;DHT22;9505;50.882;5.350;2023-09-19T12:08:04;22.10;99.90
18753;DHT22;9505;50.882;5.350;2023-09-19T12:10:33;21.70;99.90
18753;DHT22;9505;50.882;5.350;2023-09-19T12:12:59;21.60;99.90
18753;DHT22;9505;50.882;5.350;2023-09-19T12:15:26;21.40;99.90
18753;DHT22;9505;50.882;5.350;2023-09-19T12:17:54;21.60;99.90
18753;DHT22;9505;50.882;5.350;2023-09-19T12:20:20;21.60;99.90
18753;DHT22;9505;50.882;5.350;2023-09-19T12:22:46;21.80;99.90
18753;DHT22;9505;50.882;5.350;2023-09-19T12:25:13;21.50;99.90
18753;DHT22;9505;50.882;5.350;2023-09-19T12:27:46;21.40;99.90
18753;DHT22;9505;50.882;5.350;2023-09-19T12:30:15;21.40;99.90
18753;DHT22;9505;50.882;5.350;2023-09-19T12:32:43;21.30;99.90
18753;DHT22;9505;50.882;5.350;2023-09-19T12:35:10;21.10;99.90
18753;DHT22;9505;50.882;5.350;2023-09-19T12:37:44;21.30;99.90
18753;DHT22;9505;50.882;5.350;2023-09-19T12:40:21;20.90;99.90
18753;DHT22;9505;50.882;5.350;2023-09-19T12:42:56;20.50;99.90
18753;DHT22;9505;50.882;5.350;2023-09-19T12:45:24;20.70;99.90
18753;DHT22;9505;50.882;5.350;2023-09-19T12:48:21;20.80;99.90
18753;DHT22;9505;50.882;5.350;2023-09-19T12:51:08;20.90;99.90
18753;DHT22;9505;50.882;5.350;2023-09-19T12:53:43;20.80;99.90
18753;DHT22;9505;50.882;5.350;2023-09-19T12:56:13;20.90;99.90
18753;DHT22;9505;50.882;5.350;2023-09-19T12:58:55;20.70;99.90
18753;DHT22;9505;50.882;5.350;2023-09-19T13:01:25;20.40;99.90
18753;DHT22;9505;50.882;5.350;2023-09-19T13:04:18;20.20;99.90
18753;DHT22;9505;50.882;5.350;2023-09-19T13:06:51;20.20;99.90
18753;DHT22;9505;50.882;5.350;2023-09-19T13:09:22;20.40;99.90
18753;DHT22;9505;50.882;5.350;2023-09-19T13:11:48;20.90;99.90
18753;DHT22;9505;50.882;5.350;2023-09-19T13:14:26;21.00;99.90
18753;DHT22;9505;50.882;5.350;2023-09-19T13:17:03;21.10;99.90
18753;DHT22;9505;50.882;5.350;2023-09-19T13:19:40;20.90;99.90
18753;DHT22;9505;50.882;5.350;2023-09-19T13:25:15;20.50;99.90
18753;DHT22;9505;50.882;5.350;2023-09-19T13:27:44;20.50;99.90
18753;DHT22;9505;50.882;5.350;2023-09-19T13:30:11;20.70;99.90
18753;DHT22;9505;50.882;5.350;2023-09-19T13:32:37;20.90;99.90
18753;DHT22;9505;50.882;5.350;2023-09-19T13:35:06;20.70;99.90
18753;DHT22;9505;50.882;5.350;2023-09-19T13:37:34;20.60;99.90
18753;DHT22;9505;50.882;5.350;2023-09-19T13:40:07;20.70;99.90
18753;DHT22;9505;50.882;5.350;2023-09-19T13:42:33;20.80;99.90
18753;DHT22;9505;50.882;5.350;2023-09-19T13:44:59;20.50;99.90
18753;DHT22;9505;50.882;5.350;2023-09-19T13:47:24;20.70;99.90
18753;DHT22;9505;50.882;5.350;2023-09-19T13:49:52;20.80;99.90
18753;DHT22;9505;50.882;5.350;2023-09-19T13:52:21;20.80;99.90
18753;DHT22;9505;50.882;5.350;2023-09-19T13:54:49;21.00;99.90
18753;DHT22;9505;50.882;5.350;2023-09-19T13:57:16;21.10;99.90
18753;DHT22;9505;50.882;5.350;2023-09-19T13:59:42;21.30;99.90
18753;DHT22;9505;50.882;5.350;2023-09-19T14:02:08;21.10;99.90
18753;DHT22;9505;50.882;5.350;2023-09-19T14:04:33;20.90;99.90
18753;DHT22;9505;50.882;5.350;2023-09-19T14:07:02;20.70;99.90
18753;DHT22;9505;50.882;5.350;2023-09-19T14:09:29;20.80;99.90
18753;DHT22;9505;50.882;5.350;2023-09-19T14:11:55;20.90;99.90
18753;DHT22;9505;50.882;5.350;2023-09-19T14:14:21;20.90;99.90
18753;DHT22;9505;50.882;5.350;2023-09-19T14:16:47;21.00;99.90
18753;DHT22;9505;50.882;5.350;2023-09-19T14:19:13;21.00;99.90
18753;DHT22;9505;50.882;5.350;2023-09-19T14:21:42;21.00;99.90
18753;DHT22;9505;50.882;5.350;2023-09-19T14:24:07;20.90;99.90
18753;DHT22;9505;50.882;5.350;2023-09-19T14:26:35;20.80;99.90
18753;DHT22;9505;50.882;5.350;2023-09-19T14:29:01;20.30;99.90
18753;DHT22;9505;50.882;5.350;2023-09-19T14:31:27;20.10;99.90
18753;DHT22;9505;50.882;5.350;2023-09-19T14:33:57;19.80;99.90
18753;DHT22;9505;50.882;5.350;2023-09-19T14:36:25;19.80;99.90
18753;DHT22;9505;50.882;5.350;2023-09-19T14:38:55;20.00;99.90
18753;DHT22;9505;50.882;5.350;2023-09-19T14:41:21;19.90;99.90
18753;DHT22;9505;50.882;5.350;2023-09-19T14:43:48;19.90;99.90
18753;DHT22;9505;50.882;5.350;2023-09-19T14:46:14;19.90;99.90
18753;DHT22;9505;50.882;5.350;2023-09-19T14:48:40;20.10;99.90
18753;DHT22;9505;50.882;5.350;2023-09-19T14:51:06;20.30;99.90
18753;DHT22;9505;50.882;5.350;2023-09-19T14:53:35;20.30;99.90
18753;DHT22;9505;50.882;5.350;2023-09-19T14:56:01;20.30;99.90
18753;DHT22;9505;50.882;5.350;2023-09-19T14:58:30;20.30;99.90
18753;DHT22;9505;50.882;5.350;2023-09-19T15:01:10;20.40;99.90
18753;DHT22;9505;50.882;5.350;2023-09-19T15:03:37;20.30;99.90
18753;DHT22;9505;50.882;5.350;2023-09-19T15:06:06;20.10;99.90
18753;DHT22;9505;50.882;5.350;2023-09-19T15:08:36;20.20;99.90
18753;DHT22;9505;50.882;5.350;2023-09-19T15:11:04;20.30;99.90
18753;DHT22;9505;50.882;5.350;2023-09-19T15:13:31;20.40;99.90
18753;DHT22;9505;50.882;5.350;2023-09-19T15:18:27;20.40;99.90
18753;DHT22;9505;50.882;5.350;2023-09-19T15:20:52;20.20;99.90
18753;DHT22;9505;50.882;5.350;2023-09-19T15:23:18;20.20;99.90
18753;DHT22;9505;50.882;5.350;2023-09-19T15:25:50;20.00;99.90
18753;DHT22;9505;50.882;5.350;2023-09-19T15:28:16;20.10;99.90
18753;DHT22;9505;50.882;5.350;2023-09-19T15:30:42;20.10;99.90
18753;DHT22;9505;50.882;5.350;2023-09-19T15:33:07;20.20;99.90
18753;DHT22;9505;50.882;5.350;2023-09-19T15:35:33;20.10;99.90
18753;DHT22;9505;50.882;5.350;2023-09-19T15:38:03;20.30;99.90
18753;DHT22;9505;50.882;5.350;2023-09-19T15:40:28;20.40;99.90
18753;DHT22;9505;50.882;5.350;2023-09-19T15:42:54;20.40;99.90
18753;DHT22;9505;50.882;5.350;2023-09-19T15:45:23;20.40;99.90
18753;DHT22;9505;50.882;5.350;2023-09-19T15:47:49;20.50;99.90
18753;DHT22;9505;50.882;5.350;2023-09-19T15:50:15;20.40;99.90
18753;DHT22;9505;50.882;5.350;2023-09-19T15:52:41;20.30;99.90
18753;DHT22;9505;50.882;5.350;2023-09-19T15:55:08;20.20;99.90
18753;DHT22;9505;50.882;5.350;2023-09-19T15:57:36;20.10;99.90
18753;DHT22;9505;50.882;5.350;2023-09-19T16:00:03;20.10;99.90
18753;DHT22;9505;50.882;5.350;2023-09-19T16:02:30;19.90;99.90
18753;DHT22;9505;50.882;5.350;2023-09-19T16:04:56;19.70;99.90
18753;DHT22;9505;50.882;5.350;2023-09-19T16:07:21;19.70;99.90
18753;DHT22;9505;50.882;5.350;2023-09-19T16:09:47;19.70;99.90
18753;DHT22;9505;50.882;5.350;2023-09-19T16:12:12;19.60;99.90
18753;DHT22;9505;50.882;5.350;2023-09-19T16:14:39;19.50;99.90
18753;DHT22;9505;50.882;5.350;2023-09-19T16:17:05;19.50;99.90
18753;DHT22;9505;50.882;5.350;2023-09-19T16:19:33;19.50;99.90
18753;DHT22;9505;50.882;5.350;2023-09-19T16:21:58;19.40;99.90
18753;DHT22;9505;50.882;5.350;2023-09-19T16:24:25;19.40;99.90
18753;DHT22;9505;50.882;5.350;2023-09-19T16:26:51;19.30;99.90
18753;DHT22;9505;50.882;5.350;2023-09-19T16:29:18;19.30;99.90
18753;DHT22;9505;50.882;5.350;2023-09-19T16:31:46;19.30;99.90
18753;DHT22;9505;50.882;5.350;2023-09-19T16:34:12;19.20;99.90
18753;DHT22;9505;50.882;5.350;2023-09-19T16:36:39;19.20;99.90
18753;DHT22;9505;50.882;5.350;2023-09-19T16:39:04;19.10;99.90
18753;DHT22;9505;50.882;5.350;2023-09-19T16:41:33;19.10;99.90